createdAt,value
2023-03-16T00:02:11.776Z,1.69
2023-03-16T00:04:38.879Z,1.71
2023-03-16T00:07:09.819Z,1.72
2023-03-16T00:09:41.410Z,1.67
2023-03-16T00:12:19.483Z,1.52
2023-03-16T00:14:49.295Z,1.56
2023-03-16T00:17:19.876Z,1.55
2023-03-16T00:20:16.969Z,1.65
2023-03-16T00:22:45.003Z,1.66
2023-03-16T00:25:14.708Z,1.68
2023-03-16T00:27:41.632Z,1.72
2023-03-16T00:30:09.555Z,1.74
2023-03-16T00:32:37.997Z,1.72
2023-03-16T00:35:09.208Z,1.70
2023-03-16T00:37:37.954Z,1.67
2023-03-16T00:40:07.828Z,1.67
2023-03-16T00:42:34.731Z,1.64
2023-03-16T00:45:02.192Z,1.65
2023-03-16T00:47:34.164Z,1.64
2023-03-16T00:50:02.424Z,1.64
2023-03-16T00:52:30.058Z,1.62
2023-03-16T00:54:57.154Z,1.59
2023-03-16T00:57:25.981Z,1.57
2023-03-16T00:59:53.016Z,1.58
2023-03-16T01:02:23.360Z,1.54
2023-03-16T01:04:52.502Z,1.59
2023-03-16T01:07:19.722Z,1.55
2023-03-16T01:09:48.558Z,1.49
2023-03-16T01:12:19.159Z,1.47
2023-03-16T01:14:47.109Z,1.45
2023-03-16T01:17:16.387Z,1.50
2023-03-16T01:19:43.906Z,1.51
2023-03-16T01:22:12.002Z,1.53
2023-03-16T01:24:40.601Z,1.54
2023-03-16T01:27:08.918Z,1.55
2023-03-16T01:29:38.795Z,1.56
2023-03-16T01:32:07.473Z,1.55
2023-03-16T01:34:35.132Z,1.50
2023-03-16T01:37:02.056Z,1.48
2023-03-16T01:39:28.795Z,1.46
2023-03-16T01:41:55.637Z,1.39
2023-03-16T01:44:32.898Z,1.42
2023-03-16T01:47:00.000Z,1.39
2023-03-16T01:49:36.360Z,1.41
2023-03-16T01:52:12.551Z,1.43
2023-03-16T01:54:49.840Z,1.40
2023-03-16T01:57:22.258Z,1.40
2023-03-16T01:59:54.918Z,1.38
2023-03-16T02:02:25.221Z,1.35
2023-03-16T02:05:33.289Z,1.30
2023-03-16T02:08:02.706Z,1.18
2023-03-16T02:10:31.121Z,1.01
2023-03-16T02:12:58.722Z,0.89
2023-03-16T02:15:27.213Z,0.83
2023-03-16T02:18:00.082Z,0.83
2023-03-16T02:20:53.651Z,0.78
2023-03-16T02:23:24.003Z,0.81
2023-03-16T02:26:10.297Z,0.84
2023-03-16T02:29:31.964Z,0.77
2023-03-16T02:32:02.905Z,0.77
2023-03-16T02:34:30.257Z,0.91
2023-03-16T02:36:59.183Z,0.85
2023-03-16T02:39:26.112Z,0.77
2023-03-16T02:41:53.284Z,0.79
2023-03-16T02:44:37.483Z,0.84
2023-03-16T02:47:14.506Z,0.77
2023-03-16T02:49:45.372Z,0.71
2023-03-16T02:52:13.249Z,0.68
2023-03-16T02:54:40.102Z,0.50
2023-03-16T02:57:07.989Z,0.55
2023-03-16T02:59:34.820Z,0.51
2023-03-16T03:02:01.764Z,0.40
2023-03-16T03:04:28.606Z,0.53
2023-03-16T03:06:55.454Z,0.58
2023-03-16T03:09:22.341Z,0.75
2023-03-16T03:11:50.493Z,0.77
2023-03-16T03:14:17.279Z,0.80
2023-03-16T03:16:46.646Z,0.71
2023-03-16T03:19:14.042Z,0.65
2023-03-16T03:21:41.577Z,0.65
2023-03-16T03:24:09.744Z,0.64
2023-03-16T03:26:39.622Z,0.65
2023-03-16T03:29:06.534Z,0.73
2023-03-16T03:31:33.349Z,0.76
2023-03-16T03:34:06.378Z,0.89
2023-03-16T03:36:34.958Z,1.00
2023-03-16T03:39:05.024Z,1.08
2023-03-16T03:41:33.345Z,1.01
2023-03-16T03:44:00.984Z,0.93
2023-03-16T03:46:27.927Z,0.96
2023-03-16T03:48:54.939Z,1.04
2023-03-16T03:51:21.759Z,0.99
2023-03-16T03:53:48.607Z,1.00
2023-03-16T03:56:15.394Z,0.94
2023-03-16T03:58:42.124Z,0.93
2023-03-16T04:01:08.904Z,0.91
2023-03-16T04:03:35.743Z,0.88
2023-03-16T04:06:02.603Z,0.82
2023-03-16T04:08:29.638Z,0.81
2023-03-16T04:10:56.532Z,0.79
2023-03-16T04:13:23.344Z,0.78
2023-03-16T04:15:56.983Z,0.72
2023-03-16T04:18:24.189Z,0.76
2023-03-16T04:20:53.163Z,0.74
2023-03-16T04:23:21.974Z,0.77
2023-03-16T04:25:48.850Z,0.79
2023-03-16T04:28:18.118Z,0.82
2023-03-16T04:30:44.992Z,0.80
2023-03-16T04:33:11.795Z,0.84
2023-03-16T04:35:39.119Z,0.91
2023-03-16T04:38:06.068Z,0.91
2023-03-16T04:40:32.884Z,0.91
2023-03-16T04:42:59.712Z,0.97
2023-03-16T04:45:26.697Z,1.09
2023-03-16T04:47:53.502Z,1.10
2023-03-16T04:50:22.314Z,1.08
2023-03-16T04:52:49.186Z,1.05
2023-03-16T04:55:15.978Z,1.07
2023-03-16T04:57:42.774Z,1.01
2023-03-16T05:00:19.029Z,1.02
2023-03-16T05:02:48.177Z,1.13
2023-03-16T05:05:15.911Z,1.23
2023-03-16T05:07:44.128Z,1.27
2023-03-16T05:10:16.132Z,1.34
2023-03-16T05:12:42.938Z,1.35
2023-03-16T05:15:10.705Z,1.35
2023-03-16T05:17:37.893Z,1.34
2023-03-16T05:20:08.903Z,1.36
2023-03-16T05:22:35.757Z,1.31
2023-03-16T05:25:04.623Z,1.35
2023-03-16T05:27:31.524Z,1.34
2023-03-16T05:29:58.276Z,1.32
2023-03-16T05:32:25.186Z,1.29
2023-03-16T05:34:53.236Z,1.28
2023-03-16T05:37:20.856Z,1.28
2023-03-16T05:39:47.794Z,1.30
2023-03-16T05:42:14.580Z,1.35
2023-03-16T05:44:41.492Z,1.29
2023-03-16T05:47:08.498Z,1.25
2023-03-16T05:49:35.366Z,1.24
2023-03-16T05:52:02.375Z,1.30
2023-03-16T05:54:29.253Z,1.28
2023-03-16T05:56:56.047Z,1.33
2023-03-16T05:59:22.795Z,1.36
2023-03-16T06:01:50.218Z,1.34
2023-03-16T06:04:17.239Z,1.31
2023-03-16T06:06:44.255Z,1.31
2023-03-16T06:09:11.086Z,1.30
2023-03-16T06:11:38.065Z,1.34
2023-03-16T06:14:05.169Z,1.28
2023-03-16T06:16:32.144Z,1.23
2023-03-16T06:18:59.941Z,1.27
2023-03-16T06:21:27.271Z,1.29
2023-03-16T06:23:54.366Z,1.31
2023-03-16T06:26:21.444Z,1.36
2023-03-16T06:28:49.020Z,1.31
2023-03-16T06:31:22.061Z,1.33
2023-03-16T06:33:48.919Z,1.40
2023-03-16T06:36:16.122Z,1.44
2023-03-16T06:38:43.316Z,1.56
2023-03-16T06:41:10.173Z,1.65
2023-03-16T06:43:37.046Z,1.70
2023-03-16T06:46:04.725Z,1.70
2023-03-16T06:48:31.608Z,1.69
2023-03-16T06:50:58.476Z,1.69
2023-03-16T06:53:25.294Z,1.69
2023-03-16T06:55:52.089Z,1.79
2023-03-16T06:58:18.956Z,1.83
2023-03-16T07:00:45.840Z,1.88
2023-03-16T07:03:14.176Z,1.93
2023-03-16T07:05:40.997Z,2.04
2023-03-16T07:08:07.915Z,2.12
2023-03-16T07:10:38.019Z,2.15
2023-03-16T07:13:04.775Z,2.17
2023-03-16T07:15:31.912Z,2.17
2023-03-16T07:17:58.618Z,2.21
2023-03-16T07:20:26.924Z,2.29
2023-03-16T07:22:53.904Z,2.34
2023-03-16T07:25:21.453Z,2.43
2023-03-16T07:27:51.106Z,2.50
2023-03-16T07:30:18.769Z,2.56
2023-03-16T07:32:46.003Z,2.63
2023-03-16T07:35:13.938Z,2.76
2023-03-16T07:37:40.783Z,2.87
2023-03-16T07:40:09.178Z,2.94
2023-03-16T07:42:36.815Z,3.03
2023-03-16T07:45:05.667Z,3.10
2023-03-16T07:47:33.775Z,3.18
2023-03-16T07:50:01.211Z,3.25
2023-03-16T07:52:28.369Z,3.33
2023-03-16T07:54:55.790Z,3.47
2023-03-16T07:57:22.754Z,3.62
2023-03-16T07:59:50.055Z,3.82
2023-03-16T08:02:19.917Z,3.99
2023-03-16T08:04:47.436Z,4.15
2023-03-16T08:07:16.084Z,4.31
2023-03-16T08:09:43.681Z,4.54
2023-03-16T08:12:11.846Z,4.74
2023-03-16T08:14:39.185Z,4.96
2023-03-16T08:17:09.593Z,5.10
2023-03-16T08:19:36.360Z,5.14
2023-03-16T08:22:03.651Z,5.26
2023-03-16T08:24:32.689Z,5.52
2023-03-16T08:27:00.996Z,5.75
2023-03-16T08:29:34.319Z,5.97
2023-03-16T08:32:01.885Z,6.22
2023-03-16T08:34:28.807Z,6.44
2023-03-16T08:36:55.821Z,6.62
2023-03-16T08:39:22.682Z,6.73
2023-03-16T08:41:49.559Z,6.79
2023-03-16T08:44:17.367Z,6.86
2023-03-16T08:46:47.219Z,6.95
2023-03-16T08:49:14.781Z,7.13
2023-03-16T08:51:44.468Z,7.53
2023-03-16T08:54:12.403Z,7.65
2023-03-16T08:56:39.332Z,7.65
2023-03-16T08:59:06.613Z,7.85
2023-03-16T09:01:34.533Z,7.85
2023-03-16T09:04:01.290Z,8.08
2023-03-16T09:06:28.759Z,8.16
2023-03-16T09:08:56.628Z,8.39
2023-03-16T09:11:23.668Z,8.51
2023-03-16T09:13:52.893Z,8.62
2023-03-16T09:16:21.071Z,8.71
2023-03-16T09:18:48.039Z,8.69
2023-03-16T09:21:14.886Z,8.96
2023-03-16T09:23:42.858Z,9.23
2023-03-16T09:26:12.370Z,9.21
2023-03-16T09:28:42.094Z,9.06
2023-03-16T09:31:16.521Z,8.92
2023-03-16T09:33:43.521Z,8.81
2023-03-16T09:36:13.707Z,8.75
2023-03-16T09:38:42.239Z,8.98
2023-03-16T09:41:35.260Z,9.16
2023-03-16T09:44:23.632Z,9.12
2023-03-16T09:46:51.667Z,9.34
2023-03-16T09:49:36.093Z,9.64
2023-03-16T09:52:30.151Z,9.88
2023-03-16T09:55:07.982Z,9.99
2023-03-16T09:57:41.732Z,10.06
2023-03-16T10:00:41.834Z,10.18
2023-03-16T10:03:29.682Z,10.18
2023-03-16T10:06:02.096Z,10.23
2023-03-16T10:08:43.613Z,10.35
2023-03-16T10:11:34.244Z,10.47
2023-03-16T10:14:49.442Z,10.55
2023-03-16T10:17:38.561Z,10.50
2023-03-16T10:20:14.972Z,10.82
2023-03-16T10:22:47.915Z,11.12
2023-03-16T10:25:42.892Z,11.07
2023-03-16T10:28:24.120Z,11.20
2023-03-16T10:30:55.419Z,11.57
2023-03-16T10:33:27.231Z,11.66
2023-03-16T10:36:21.850Z,11.53
2023-03-16T10:39:00.007Z,11.79
2023-03-16T10:41:46.796Z,12.10
2023-03-16T10:44:15.639Z,12.12
2023-03-16T10:47:00.425Z,12.07
2023-03-16T10:49:49.017Z,11.99
2023-03-16T10:52:45.358Z,12.10
2023-03-16T10:55:23.313Z,12.46
2023-03-16T10:57:55.065Z,12.66
2023-03-16T11:00:30.941Z,12.81
2023-03-16T11:03:01.149Z,13.30
2023-03-16T11:05:34.678Z,13.07
2023-03-16T11:08:32.785Z,13.09
2023-03-16T11:11:27.200Z,13.67
2023-03-16T11:13:59.929Z,13.98
2023-03-16T11:16:57.933Z,14.23
2023-03-16T11:19:38.676Z,14.25
2023-03-16T11:22:25.301Z,14.47
2023-03-16T11:25:07.054Z,14.53
2023-03-16T11:27:40.520Z,14.61
2023-03-16T11:30:35.224Z,15.32
2023-03-16T11:33:02.090Z,16.01
2023-03-16T11:35:59.356Z,16.50
2023-03-16T11:38:45.027Z,16.19
2023-03-16T11:41:25.611Z,15.45
2023-03-16T11:43:56.777Z,15.01
2023-03-16T11:46:33.503Z,15.09
2023-03-16T11:49:21.515Z,14.93
2023-03-16T11:51:59.496Z,14.74
2023-03-16T11:54:55.062Z,15.05
2023-03-16T11:57:46.729Z,15.26
2023-03-16T12:00:44.924Z,15.81
2023-03-16T12:03:50.158Z,16.66
2023-03-16T12:06:43.339Z,16.47
2023-03-16T12:09:43.317Z,15.56
2023-03-16T12:12:34.417Z,15.37
2023-03-16T12:15:38.392Z,15.50
2023-03-16T12:18:54.464Z,15.90
2023-03-16T12:21:42.161Z,17.72
2023-03-16T12:24:20.259Z,18.66
2023-03-16T12:26:49.475Z,19.36
2023-03-16T12:29:26.277Z,19.34
2023-03-16T12:32:26.443Z,19.69
2023-03-16T12:35:34.998Z,19.61
2023-03-16T12:38:22.650Z,18.76
2023-03-16T12:41:00.043Z,18.36
2023-03-16T12:43:53.608Z,18.08
2023-03-16T12:46:47.795Z,18.90
2023-03-16T12:49:16.607Z,18.16
2023-03-16T12:51:44.082Z,19.31
2023-03-16T12:54:25.698Z,19.73
2023-03-16T12:57:06.826Z,19.81
2023-03-16T12:59:47.102Z,19.61
2023-03-16T13:02:26.244Z,19.77
2023-03-16T13:05:13.164Z,19.68
2023-03-16T13:08:03.490Z,19.97
2023-03-16T13:10:31.342Z,19.55
2023-03-16T13:13:13.740Z,19.66
2023-03-16T13:15:44.235Z,19.61
2023-03-16T13:18:16.964Z,19.89
2023-03-16T13:20:58.944Z,20.14
2023-03-16T13:23:52.115Z,20.44
2023-03-16T13:26:36.157Z,20.80
2023-03-16T13:29:27.756Z,20.74
2023-03-16T13:32:02.224Z,20.56
2023-03-16T13:34:35.245Z,20.30
2023-03-16T13:37:02.431Z,19.99
2023-03-16T13:39:32.128Z,20.46
2023-03-16T13:42:22.246Z,20.49
2023-03-16T13:44:53.880Z,20.34
2023-03-16T13:47:21.460Z,20.19
2023-03-16T13:49:54.626Z,20.53
2023-03-16T13:52:33.282Z,19.93
2023-03-16T13:55:16.158Z,19.66
2023-03-16T13:57:45.253Z,19.59
2023-03-16T14:00:25.275Z,20.24
2023-03-16T14:02:57.188Z,20.50
2023-03-16T14:05:33.075Z,20.70
2023-03-16T14:08:04.808Z,20.30
2023-03-16T14:10:36.757Z,19.69
2023-03-16T14:13:30.353Z,19.20
2023-03-16T14:16:01.395Z,19.27
2023-03-16T14:19:01.935Z,19.47
2023-03-16T14:21:34.251Z,19.22
2023-03-16T14:24:07.840Z,18.71
2023-03-16T14:26:46.290Z,18.34
2023-03-16T14:29:31.437Z,17.56
2023-03-16T14:32:00.007Z,17.13
2023-03-16T14:34:42.061Z,16.73
2023-03-16T14:37:19.326Z,16.80
2023-03-16T14:39:59.335Z,16.80
2023-03-16T14:42:31.522Z,16.43
2023-03-16T14:45:02.406Z,16.21
2023-03-16T14:47:33.531Z,16.15
2023-03-16T14:50:08.859Z,15.81
2023-03-16T14:52:37.143Z,15.74
2023-03-16T14:55:15.241Z,15.58
2023-03-16T14:57:45.058Z,15.38
2023-03-16T15:00:16.619Z,15.36
2023-03-16T15:02:54.388Z,15.17
2023-03-16T15:05:42.415Z,14.93
2023-03-16T15:08:37.162Z,14.93
2023-03-16T15:11:06.893Z,14.99
2023-03-16T15:13:40.073Z,14.98
2023-03-16T15:16:11.894Z,14.89
2023-03-16T15:18:41.794Z,14.84
2023-03-16T15:21:16.423Z,14.73
2023-03-16T15:23:45.244Z,14.66
2023-03-16T15:26:16.593Z,14.58
2023-03-16T15:28:43.373Z,14.49
2023-03-16T15:31:17.232Z,14.46
2023-03-16T15:33:45.510Z,14.41
2023-03-16T15:36:18.164Z,14.34
2023-03-16T15:38:49.149Z,14.30
2023-03-16T15:41:17.124Z,14.31
2023-03-16T15:43:46.238Z,14.28
2023-03-16T15:46:14.704Z,14.22
2023-03-16T15:48:41.651Z,14.14
2023-03-16T15:51:25.600Z,14.08
2023-03-16T15:54:01.782Z,14.02
2023-03-16T15:56:41.194Z,14.00
2023-03-16T15:59:18.566Z,13.93
2023-03-16T16:01:47.830Z,13.89
2023-03-16T16:04:23.511Z,13.92
2023-03-16T16:06:55.035Z,13.87
2023-03-16T16:09:22.732Z,13.73
2023-03-16T16:11:50.413Z,13.68
2023-03-16T16:14:24.855Z,13.69
2023-03-16T16:16:54.326Z,13.66
2023-03-16T16:19:23.763Z,13.64
2023-03-16T16:21:51.006Z,13.57
2023-03-16T16:24:18.386Z,13.52
2023-03-16T16:26:53.331Z,13.50
2023-03-16T16:29:34.104Z,13.47
2023-03-16T16:32:05.406Z,13.35
2023-03-16T16:34:32.211Z,13.24
2023-03-16T16:36:58.987Z,13.14
2023-03-16T16:39:27.453Z,13.06
2023-03-16T16:41:56.334Z,13.06
2023-03-16T16:44:30.450Z,13.09
2023-03-16T16:46:59.767Z,13.05
2023-03-16T16:49:30.637Z,12.91
2023-03-16T16:51:59.261Z,12.81
2023-03-16T16:54:30.137Z,12.72
2023-03-16T16:57:00.214Z,12.64
2023-03-16T16:59:36.792Z,12.56
2023-03-16T17:02:23.350Z,12.50
2023-03-16T17:04:50.801Z,12.43
2023-03-16T17:07:17.960Z,12.31
2023-03-16T17:09:45.115Z,12.25
2023-03-16T17:12:21.677Z,12.22
2023-03-16T17:14:50.401Z,12.14
2023-03-16T17:17:18.879Z,12.11
2023-03-16T17:19:48.369Z,12.10
2023-03-16T17:22:25.761Z,11.99
2023-03-16T17:24:53.919Z,11.93
2023-03-16T17:27:28.526Z,11.82
2023-03-16T17:29:57.634Z,11.79
2023-03-16T17:32:25.436Z,11.73
2023-03-16T17:34:52.318Z,11.68
2023-03-16T17:37:22.041Z,11.58
2023-03-16T17:39:49.390Z,11.45
2023-03-16T17:42:19.410Z,11.35
2023-03-16T17:44:50.690Z,11.27
2023-03-16T17:47:27.789Z,11.15
2023-03-16T17:49:55.228Z,11.07
2023-03-16T17:52:28.764Z,10.97
2023-03-16T17:54:56.050Z,10.90
2023-03-16T17:57:31.043Z,10.79
2023-03-16T18:00:00.792Z,10.67
2023-03-16T18:03:00.851Z,10.50
2023-03-16T18:05:34.691Z,10.52
2023-03-16T18:08:16.186Z,10.42
2023-03-16T18:10:49.530Z,10.36
2023-03-16T18:13:41.556Z,10.23
2023-03-16T18:16:09.076Z,10.16
2023-03-16T18:18:42.789Z,10.15
2023-03-16T18:21:23.404Z,10.06
2023-03-16T18:23:53.006Z,9.99
2023-03-16T18:26:23.891Z,9.94
2023-03-16T18:28:54.215Z,9.87
2023-03-16T18:31:26.318Z,9.85
2023-03-16T18:34:04.465Z,9.86
2023-03-16T18:36:40.973Z,9.84
2023-03-16T18:39:20.128Z,9.77
2023-03-16T18:41:47.152Z,9.67
2023-03-16T18:44:26.026Z,9.58
2023-03-16T18:47:02.635Z,9.57
2023-03-16T18:49:36.604Z,9.53
2023-03-16T18:52:12.726Z,9.48
2023-03-16T18:54:39.898Z,9.42
2023-03-16T18:57:20.348Z,9.39
2023-03-16T18:59:51.677Z,9.30
2023-03-16T19:02:50.231Z,9.31
2023-03-16T19:05:21.792Z,9.26
2023-03-16T19:07:54.026Z,9.22
2023-03-16T19:10:28.575Z,9.13
2023-03-16T19:12:56.103Z,9.10
2023-03-16T19:15:30.778Z,9.10
2023-03-16T19:17:59.975Z,9.18
2023-03-16T19:20:32.595Z,9.30
2023-03-16T19:23:16.279Z,9.35
2023-03-16T19:25:45.354Z,9.31
2023-03-16T19:28:42.637Z,9.32
2023-03-16T19:31:22.049Z,9.20
2023-03-16T19:33:51.867Z,9.15
2023-03-16T19:36:24.942Z,9.19
2023-03-16T19:38:52.610Z,9.32
2023-03-16T19:41:42.668Z,9.34
2023-03-16T19:44:27.240Z,9.39
2023-03-16T19:47:02.595Z,9.41
2023-03-16T19:49:30.609Z,9.47
2023-03-16T19:51:57.826Z,9.52
2023-03-16T19:54:33.319Z,9.50
2023-03-16T19:57:11.392Z,9.53
2023-03-16T19:59:38.589Z,9.47
2023-03-16T20:02:41.370Z,9.42
2023-03-16T20:05:22.399Z,9.46
2023-03-16T20:07:50.184Z,9.46
2023-03-16T20:10:25.195Z,9.46
2023-03-16T20:12:57.049Z,9.41
2023-03-16T20:15:34.022Z,9.39
2023-03-16T20:18:01.181Z,9.36
2023-03-16T20:20:33.580Z,9.33
2023-03-16T20:23:01.390Z,9.31
2023-03-16T20:25:35.287Z,9.18
2023-03-16T20:28:05.165Z,9.16
2023-03-16T20:30:35.309Z,9.10
2023-03-16T20:33:03.566Z,9.03
2023-03-16T20:35:32.925Z,8.99
2023-03-16T20:37:59.923Z,8.93
2023-03-16T20:40:29.475Z,8.89
2023-03-16T20:42:56.528Z,8.88
2023-03-16T20:45:30.530Z,8.87
2023-03-16T20:47:57.609Z,8.82
2023-03-16T20:50:30.688Z,8.81
2023-03-16T20:53:00.360Z,8.74
2023-03-16T20:55:29.200Z,8.75
2023-03-16T20:57:57.388Z,8.77
2023-03-16T21:00:47.405Z,8.76
2023-03-16T21:03:24.608Z,8.69
2023-03-16T21:05:53.709Z,8.67
2023-03-16T21:08:20.542Z,8.64
2023-03-16T21:10:51.752Z,8.63
2023-03-16T21:13:32.422Z,8.65
2023-03-16T21:16:03.379Z,8.66
2023-03-16T21:18:33.121Z,8.54
2023-03-16T21:21:02.901Z,8.50
2023-03-16T21:23:29.769Z,8.55
2023-03-16T21:26:01.607Z,8.53
2023-03-16T21:28:36.522Z,8.51
2023-03-16T21:31:07.998Z,8.51
2023-03-16T21:33:38.870Z,8.46
2023-03-16T21:36:17.042Z,8.44
2023-03-16T21:38:46.752Z,8.48
2023-03-16T21:41:15.233Z,8.47
2023-03-16T21:43:43.230Z,8.44
2023-03-16T21:46:23.291Z,8.45
2023-03-16T21:48:58.001Z,8.49
2023-03-16T21:51:34.740Z,8.46
2023-03-16T21:54:01.630Z,8.48
2023-03-16T21:56:28.945Z,8.42
2023-03-16T21:58:55.990Z,8.39
2023-03-16T22:01:38.255Z,8.32
2023-03-16T22:04:16.033Z,8.32
2023-03-16T22:06:45.948Z,8.37
2023-03-16T22:09:22.358Z,8.37
2023-03-16T22:11:49.687Z,8.40
2023-03-16T22:14:16.464Z,8.42
2023-03-16T22:16:43.702Z,8.37
2023-03-16T22:19:14.609Z,8.29
2023-03-16T22:21:44.958Z,8.31
2023-03-16T22:24:26.362Z,8.26
2023-03-16T22:26:53.721Z,8.23
2023-03-16T22:29:36.528Z,8.20
2023-03-16T22:32:20.842Z,8.18
2023-03-16T22:34:56.388Z,8.13
2023-03-16T22:37:27.425Z,8.10
2023-03-16T22:39:57.203Z,8.07
2023-03-16T22:42:37.892Z,8.00
2023-03-16T22:45:26.497Z,8.03
2023-03-16T22:47:55.945Z,8.04
2023-03-16T22:50:27.380Z,8.03
2023-03-16T22:52:59.682Z,8.06
2023-03-16T22:55:38.403Z,8.05
2023-03-16T22:58:15.353Z,8.06
2023-03-16T23:00:42.753Z,7.97
2023-03-16T23:03:24.563Z,7.91
2023-03-16T23:05:51.654Z,7.86
2023-03-16T23:08:23.343Z,7.85
2023-03-16T23:10:55.701Z,7.82
2023-03-16T23:13:28.918Z,7.78
2023-03-16T23:15:56.763Z,7.78
2023-03-16T23:18:25.982Z,7.76
2023-03-16T23:20:53.522Z,7.71
2023-03-16T23:23:22.564Z,7.59
2023-03-16T23:25:49.443Z,7.61
2023-03-16T23:28:24.483Z,7.58
2023-03-16T23:30:51.573Z,7.57
2023-03-16T23:33:21.719Z,7.55
2023-03-16T23:35:48.609Z,7.52
2023-03-16T23:38:15.430Z,7.54
2023-03-16T23:40:42.228Z,7.51
2023-03-16T23:43:09.457Z,7.45
2023-03-16T23:45:46.476Z,7.44
2023-03-16T23:48:20.982Z,7.41
2023-03-16T23:50:52.131Z,7.32
2023-03-16T23:53:20.408Z,7.28
2023-03-16T23:55:48.080Z,7.27
2023-03-16T23:58:18.639Z,7.23
